Time;durP1;ratioP1;P1;durP2;ratioP2;P2;SDS_P1;SDS_P2;PMS_P1;PMS_P2;Temp;Humidity;BMP_temperature;BMP_pressure;BME280_temperature;BME280_humidity;BME280_pressure;Samples;Min_cycle;Max_cycle;Signal;HPM_P1;HPM_P2
2022/11/12 00:00:49;;;;;;;1.40;1.30;;;10.50;99.90;;;;;;5116433;28;20214;-87
2022/11/12 00:03:19;;;;;;;1.00;1.00;;;10.50;99.90;;;;;;5121889;27;20219;-86
2022/11/12 00:05:49;;;;;;;1.48;1.38;;;10.50;99.90;;;;;;5137585;27;20213;-88
2022/11/12 00:08:18;;;;;;;2.60;1.50;;;10.40;99.90;;;;;;5132699;28;20198;-88
2022/11/12 00:10:46;;;;;;;2.22;1.63;;;10.40;99.90;;;;;;5130551;28;20210;-88
2022/11/12 00:13:15;;;;;;;1.95;1.85;;;10.30;99.90;;;;;;5124575;27;20231;-88
2022/11/12 00:15:43;;;;;;;3.22;2.70;;;10.20;99.90;;;;;;5132942;28;20199;-87
2022/11/12 00:18:12;;;;;;;6.72;5.90;;;10.20;99.90;;;;;;5129446;28;20229;-87
2022/11/12 00:20:42;;;;;;;13.45;7.60;;;10.10;99.90;;;;;;5131960;28;20195;-87
2022/11/12 00:23:10;;;;;;;8.98;8.15;;;10.00;99.90;;;;;;5131804;28;20211;-87
2022/11/12 00:25:38;;;;;;;14.60;8.85;;;9.90;99.90;;;;;;5127427;27;20203;-87
2022/11/12 00:28:08;;;;;;;15.43;8.88;;;9.80;99.90;;;;;;5133082;27;20199;-87
2022/11/12 00:30:39;;;;;;;11.65;9.20;;;9.80;99.90;;;;;;5130757;27;20199;-86
2022/11/12 00:33:07;;;;;;;5.72;5.22;;;9.70;99.90;;;;;;5133615;27;20215;-87
2022/11/12 00:35:36;;;;;;;9.30;7.20;;;9.60;99.90;;;;;;5132567;27;20201;-87
2022/11/12 00:38:06;;;;;;;9.60;7.50;;;9.50;99.90;;;;;;5147043;27;20211;-87
2022/11/12 00:40:34;;;;;;;12.18;7.70;;;9.40;99.90;;;;;;5136293;27;20206;-87
2022/11/12 00:43:02;;;;;;;12.18;8.18;;;9.40;99.90;;;;;;5136498;27;20222;-88
2022/11/12 00:45:31;;;;;;;10.95;7.72;;;9.30;99.90;;;;;;5136485;27;20206;-88
2022/11/12 00:47:59;;;;;;;11.32;7.70;;;9.30;99.90;;;;;;5132167;27;20202;-88
2022/11/12 00:50:27;;;;;;;8.35;6.55;;;9.20;99.90;;;;;;5136924;27;20207;-88
2022/11/12 00:52:55;;;;;;;5.85;4.90;;;9.20;99.90;;;;;;5142076;22;20310;-90
2022/11/12 00:55:25;;;;;;;6.95;5.78;;;9.10;99.90;;;;;;5116099;28;20214;-90
2022/11/12 00:57:53;;;;;;;5.35;4.85;;;9.00;99.90;;;;;;5116463;28;20212;-90
2022/11/12 01:00:22;;;;;;;4.35;3.95;;;9.00;99.90;;;;;;5116847;28;20203;-90
2022/11/12 01:02:50;;;;;;;5.70;5.20;;;9.00;99.90;;;;;;5115803;28;20219;-90
2022/11/12 01:05:19;;;;;;;5.75;4.70;;;8.90;99.90;;;;;;5116145;28;20204;-91
2022/11/12 01:07:48;;;;;;;5.60;5.10;;;8.90;99.90;;;;;;5115515;28;20202;-90
2022/11/12 01:10:23;;;;;;;6.70;5.45;;;8.80;99.90;;;;;;5115683;28;20282;-89
2022/11/12 01:12:52;;;;;;;7.30;5.65;;;8.80;99.90;;;;;;5115908;27;20223;-90
2022/11/12 01:15:21;;;;;;;6.45;5.82;;;8.70;99.90;;;;;;5116359;28;20242;-90
2022/11/12 01:17:49;;;;;;;8.32;6.18;;;8.70;99.90;;;;;;5115128;28;20219;-90
2022/11/12 01:20:17;;;;;;;8.45;4.68;;;8.70;99.90;;;;;;5115765;28;20200;-90
2022/11/12 01:22:46;;;;;;;9.02;3.92;;;8.60;99.90;;;;;;5115892;28;20222;-89
2022/11/12 01:25:14;;;;;;;4.82;3.92;;;8.60;99.90;;;;;;5115178;28;20204;-90
2022/11/12 01:27:42;;;;;;;4.57;3.25;;;8.60;99.90;;;;;;5115720;28;20215;-89
2022/11/12 01:30:12;;;;;;;2.65;2.45;;;8.60;99.90;;;;;;5115748;28;20192;-90
2022/11/12 01:32:40;;;;;;;5.22;2.40;;;8.60;99.90;;;;;;5115908;28;20227;-90
2022/11/12 01:35:09;;;;;;;3.95;2.95;;;8.70;99.90;;;;;;5115064;28;20283;-90
2022/11/12 01:37:37;;;;;;;3.42;2.10;;;8.70;99.90;;;;;;5114841;28;20223;-90
2022/11/12 01:40:06;;;;;;;3.67;2.47;;;8.80;99.90;;;;;;5115340;28;20198;-90
2022/11/12 01:42:35;;;;;;;13.38;3.50;;;8.80;99.90;;;;;;5115450;28;20231;-90
2022/11/12 01:45:14;;;;;;;10.68;2.53;;;8.90;99.90;;;;;;5114802;28;20194;-90
2022/11/12 01:47:47;;;;;;;2.95;2.17;;;8.90;99.90;;;;;;5114884;28;20233;-90
2022/11/12 01:50:20;;;;;;;3.13;2.20;;;9.00;99.90;;;;;;5114762;28;20196;-90
2022/11/12 01:52:51;;;;;;;1.77;1.40;;;9.00;99.90;;;;;;5128753;27;20242;-90
2022/11/12 01:55:24;;;;;;;2.30;2.10;;;9.00;99.90;;;;;;5136267;27;20191;-90
2022/11/12 01:57:56;;;;;;;1.90;1.80;;;9.00;99.90;;;;;;5135337;27;20234;-90
2022/11/12 02:00:24;;;;;;;1.55;1.45;;;9.00;99.90;;;;;;5135503;27;20210;-90
2022/11/12 02:02:57;;;;;;;1.73;1.50;;;9.00;99.90;;;;;;5134866;27;20222;-90
2022/11/12 02:05:28;;;;;;;1.98;1.70;;;9.00;99.90;;;;;;5135663;27;20218;-90
2022/11/12 02:08:00;;;;;;;2.13;2.03;;;9.00;99.90;;;;;;5135625;27;20203;-87
2022/11/12 02:10:29;;;;;;;2.63;2.42;;;9.00;99.90;;;;;;5135690;27;20207;-87
2022/11/12 02:15:45;;;;;;;4.10;2.60;;;8.90;99.90;;;;;;5105223;28;20215;-87
2022/11/12 02:18:16;;;;;;;2.30;2.10;;;8.90;99.90;;;;;;5134778;27;20214;-87
2022/11/12 02:20:44;;;;;;;2.90;2.60;;;8.80;99.90;;;;;;5135363;27;20204;-87
2022/11/12 02:23:14;;;;;;;2.50;2.30;;;8.80;99.90;;;;;;5135124;27;20223;-87
2022/11/12 02:25:42;;;;;;;3.25;2.95;;;8.70;99.90;;;;;;5134805;27;20315;-86
2022/11/12 02:28:10;;;;;;;3.38;3.08;;;8.60;99.90;;;;;;5135033;27;20195;-87
2022/11/12 02:30:41;;;;;;;3.75;2.55;;;8.60;99.90;;;;;;5134700;27;20199;-87
2022/11/12 02:33:09;;;;;;;2.70;2.50;;;8.60;99.90;;;;;;5135382;27;20219;-90
2022/11/12 02:35:37;;;;;;;2.60;2.40;;;8.50;99.90;;;;;;5135237;27;20203;-90
2022/11/12 02:38:07;;;;;;;1.88;1.77;;;8.60;99.90;;;;;;5134465;27;20226;-90
2022/11/12 02:40:37;;;;;;;2.78;2.47;;;8.50;99.90;;;;;;5135787;27;20199;-90
2022/11/12 02:43:05;;;;;;;3.15;2.70;;;8.50;99.90;;;;;;5135777;27;20231;-90
2022/11/12 02:45:34;;;;;;;4.70;3.13;;;8.60;99.90;;;;;;5135558;27;20258;-90
2022/11/12 02:48:02;;;;;;;2.33;2.22;;;8.60;99.90;;;;;;5133958;27;20203;-90
2022/11/12 02:50:30;;;;;;;18.13;2.70;;;8.60;99.90;;;;;;5134542;27;20195;-90
2022/11/12 02:52:59;;;;;;;1.80;1.70;;;8.50;99.90;;;;;;5134723;27;20238;-90
2022/11/12 02:55:27;;;;;;;2.00;1.90;;;8.50;99.90;;;;;;5134508;27;20195;-90
2022/11/12 02:57:59;;;;;;;1.90;1.80;;;8.50;99.90;;;;;;5134237;27;20222;-90
2022/11/12 03:00:27;;;;;;;1.77;1.67;;;8.50;99.90;;;;;;5135080;27;20214;-90
2022/11/12 03:02:58;;;;;;;1.88;1.77;;;8.50;99.90;;;;;;5134217;27;20215;-90
2022/11/12 03:05:28;;;;;;;1.85;1.73;;;8.60;99.90;;;;;;5134440;27;20203;-90
2022/11/12 03:07:58;;;;;;;1.70;1.60;;;8.60;99.90;;;;;;5134257;27;20187;-90
2022/11/12 03:10:27;;;;;;;2.35;1.35;;;8.70;99.90;;;;;;5134229;27;20209;-89
2022/11/12 03:12:59;;;;;;;1.98;1.33;;;8.80;99.90;;;;;;5134389;27;20226;-90
2022/11/12 03:15:28;;;;;;;2.38;1.40;;;9.00;99.90;;;;;;5134611;27;20199;-91
2022/11/12 03:17:57;;;;;;;1.40;1.30;;;9.10;99.90;;;;;;5133762;27;20219;-90
2022/11/12 03:20:27;;;;;;;1.33;1.30;;;9.30;99.90;;;;;;5134164;28;20202;-90
2022/11/12 03:22:56;;;;;;;1.35;1.30;;;9.40;99.90;;;;;;5134198;28;20223;-89
2022/11/12 03:25:25;;;;;;;3.35;1.42;;;9.50;99.90;;;;;;5134097;28;20195;-90
2022/11/12 03:27:59;;;;;;;1.33;1.23;;;9.50;99.90;;;;;;5133845;28;20203;-90
2022/11/12 03:30:28;;;;;;;1.17;1.08;;;9.60;99.90;;;;;;5134329;28;20209;-91
2022/11/12 03:32:56;;;;;;;1.63;1.23;;;9.60;99.90;;;;;;5134062;28;20223;-90
2022/11/12 03:35:25;;;;;;;1.58;1.48;;;9.50;99.90;;;;;;5134490;28;20217;-90
2022/11/12 03:37:54;;;;;;;1.70;1.60;;;9.60;99.90;;;;;;5134442;28;20207;-90
2022/11/12 03:40:22;;;;;;;1.63;1.50;;;9.60;99.90;;;;;;5133966;28;20211;-91
2022/11/12 03:42:51;;;;;;;1.58;1.48;;;9.60;99.90;;;;;;5133490;28;20222;-90
2022/11/12 03:45:23;;;;;;;1.30;1.20;;;9.60;99.90;;;;;;5134211;28;20199;-89
2022/11/12 03:47:54;;;;;;;1.48;1.38;;;9.50;99.90;;;;;;5133880;28;20202;-90
2022/11/12 03:50:25;;;;;;;1.30;1.25;;;9.50;99.90;;;;;;5134110;28;20195;-90
2022/11/12 03:52:57;;;;;;;1.55;1.45;;;9.50;99.90;;;;;;5134002;28;20227;-87
2022/11/12 03:55:28;;;;;;;1.75;1.23;;;9.40;99.90;;;;;;5133753;28;20195;-87
2022/11/12 03:57:57;;;;;;;1.10;1.08;;;9.30;99.90;;;;;;5133823;28;20207;-87
2022/11/12 04:00:29;;;;;;;2.33;1.30;;;9.30;99.90;;;;;;5136606;27;20195;-87
2022/11/12 04:02:58;;;;;;;1.48;1.23;;;9.30;99.90;;;;;;5138206;27;20297;-90
2022/11/12 04:11:01;;;;;;;2.78;1.30;;;9.20;99.90;;;;;;5137122;27;20229;-90
2022/11/12 04:13:29;;;;;;;1.10;1.10;;;9.10;99.90;;;;;;5137918;27;20211;-90
2022/11/12 04:21:53;;;;;;;2.78;2.58;;;8.90;99.90;;;;;;5137927;27;20237;-90
2022/11/12 04:27:13;;;;;;;2.97;2.67;;;8.80;99.90;;;;;;5136853;27;20206;-90
2022/11/12 04:32:30;;;;;;;3.05;2.83;;;8.60;99.90;;;;;;5136712;27;20219;-89
2022/11/12 04:34:59;;;;;;;3.60;3.30;;;8.50;99.90;;;;;;5137474;27;20252;-89
2022/11/12 04:37:43;;;;;;;3.17;2.88;;;8.50;99.90;;;;;;5137189;27;20214;-90
2022/11/12 04:45:44;;;;;;;3.80;3.50;;;8.20;99.90;;;;;;5137189;27;20206;-89
2022/11/12 04:48:14;;;;;;;4.00;3.70;;;8.10;99.90;;;;;;5136978;27;20218;-90
2022/11/12 04:50:43;;;;;;;3.30;3.00;;;8.10;99.90;;;;;;5138308;27;20203;-89
2022/11/12 04:53:11;;;;;;;3.28;3.03;;;8.00;99.90;;;;;;5138024;27;20257;-89
2022/11/12 04:55:40;;;;;;;3.78;3.47;;;7.90;99.90;;;;;;5137539;27;20203;-87
2022/11/12 04:58:08;;;;;;;3.40;3.10;;;7.90;99.90;;;;;;5136413;27;20195;-90
2022/11/12 05:00:36;;;;;;;4.90;3.60;;;7.90;99.90;;;;;;5136578;27;20222;-90
2022/11/12 05:03:05;;;;;;;3.10;2.90;;;7.80;99.90;;;;;;5136894;27;20226;-90
2022/11/12 05:05:35;;;;;;;4.20;3.80;;;7.80;99.90;;;;;;5136336;27;20194;-89
2022/11/12 05:08:03;;;;;;;6.10;4.20;;;7.80;99.90;;;;;;5136402;27;20210;-89
2022/11/12 05:10:32;;;;;;;3.75;3.38;;;7.70;99.90;;;;;;5136694;27;20194;-89
2022/11/12 05:13:00;;;;;;;4.32;3.92;;;7.70;99.90;;;;;;5136066;27;20223;-90
2022/11/12 05:15:29;;;;;;;3.78;3.47;;;7.60;99.90;;;;;;5136556;27;20209;-90
2022/11/12 05:17:57;;;;;;;5.32;4.30;;;7.60;99.90;;;;;;5136414;27;20209;-89
2022/11/12 05:20:26;;;;;;;3.92;3.35;;;7.50;99.90;;;;;;5136342;27;20217;-89
2022/11/12 05:22:55;;;;;;;3.88;3.50;;;7.50;99.90;;;;;;5136805;27;20292;-89
2022/11/12 05:25:34;;;;;;;4.40;4.00;;;7.50;99.90;;;;;;5136151;27;20205;-89
2022/11/12 05:28:03;;;;;;;3.53;3.30;;;7.50;99.90;;;;;;5136000;27;20203;-89
2022/11/12 05:30:34;;;;;;;4.95;3.67;;;7.40;99.90;;;;;;5136188;27;20202;-89
2022/11/12 05:33:02;;;;;;;4.95;3.72;;;7.40;99.90;;;;;;5136382;27;20223;-88
2022/11/12 05:35:30;;;;;;;3.17;2.97;;;7.40;99.90;;;;;;5136351;27;20207;-89
2022/11/12 05:38:00;;;;;;;3.80;3.50;;;7.40;99.90;;;;;;5135781;27;20202;-89
2022/11/12 05:40:28;;;;;;;3.22;3.03;;;7.30;99.90;;;;;;5135720;27;20215;-89
2022/11/12 05:42:57;;;;;;;4.55;4.15;;;7.30;99.90;;;;;;5135950;27;20210;-89
2022/11/12 05:45:25;;;;;;;6.18;4.32;;;7.30;99.90;;;;;;5135992;27;20202;-89
2022/11/12 05:47:53;;;;;;;4.75;4.38;;;7.30;99.90;;;;;;5135730;27;20197;-88
2022/11/12 05:50:22;;;;;;;4.95;3.88;;;7.20;99.90;;;;;;5136151;27;20205;-89
2022/11/12 05:52:50;;;;;;;3.97;3.67;;;7.20;99.90;;;;;;5135514;27;20234;-88
2022/11/12 05:55:19;;;;;;;4.13;3.40;;;7.20;99.90;;;;;;5135266;27;20207;-89
2022/11/12 05:57:48;;;;;;;4.65;3.15;;;7.20;99.90;;;;;;5135081;27;20210;-90
2022/11/12 06:00:17;;;;;;;2.55;2.17;;;7.30;99.90;;;;;;5135441;27;20309;-89
2022/11/12 06:02:45;;;;;;;2.20;1.98;;;7.30;99.90;;;;;;5135187;27;20215;-91
2022/11/12 06:05:13;;;;;;;2.85;2.65;;;7.50;99.90;;;;;;5135535;27;20229;-88
2022/11/12 06:07:42;;;;;;;2.38;2.17;;;7.60;99.90;;;;;;5135195;27;20199;-89
2022/11/12 06:10:10;;;;;;;1.65;1.55;;;7.70;99.90;;;;;;5135288;27;20203;-89
2022/11/12 06:12:47;;;;;;;4.03;2.38;;;7.80;99.90;;;;;;5115070;28;20280;-88
2022/11/12 06:15:16;;;;;;;2.08;1.88;;;7.80;99.90;;;;;;5119418;27;20203;-89
2022/11/12 06:17:44;;;;;;;2.45;1.98;;;7.90;99.90;;;;;;5135319;27;20206;-89
2022/11/12 06:20:13;;;;;;;1.67;1.58;;;7.90;99.90;;;;;;5134754;27;20218;-91
2022/11/12 06:22:41;;;;;;;2.95;2.35;;;8.00;99.90;;;;;;5134419;27;20275;-89
2022/11/12 06:25:09;;;;;;;4.18;2.25;;;8.00;99.90;;;;;;5135046;27;20191;-89
2022/11/12 06:27:37;;;;;;;2.28;2.08;;;8.00;99.90;;;;;;5134284;27;20203;-89
2022/11/12 06:30:09;;;;;;;1.90;1.75;;;8.00;99.90;;;;;;5135234;27;20213;-89
2022/11/12 06:32:37;;;;;;;2.53;1.98;;;8.00;99.90;;;;;;5131899;27;20211;-89
2022/11/12 06:35:06;;;;;;;2.42;2.22;;;8.10;99.90;;;;;;5117984;27;20209;-90
2022/11/12 06:37:35;;;;;;;1.80;1.60;;;8.10;99.90;;;;;;5127571;27;20199;-88
2022/11/12 06:40:04;;;;;;;1.50;1.42;;;8.10;99.90;;;;;;5135030;27;20215;-89
2022/11/12 06:42:32;;;;;;;3.88;1.80;;;8.20;99.90;;;;;;5134977;27;20227;-87
2022/11/12 06:45:04;;;;;;;2.05;1.65;;;8.20;99.90;;;;;;5134102;27;20198;-89
2022/11/12 06:47:34;;;;;;;1.80;1.65;;;8.20;99.90;;;;;;5132989;27;20213;-89
2022/11/12 06:50:03;;;;;;;2.13;1.90;;;8.40;99.90;;;;;;5134279;27;20210;-89
2022/11/12 06:52:31;;;;;;;1.67;1.58;;;8.40;99.90;;;;;;5132000;27;20227;-89
2022/11/12 06:54:59;;;;;;;2.00;1.75;;;8.50;99.90;;;;;;5134694;27;20202;-88
2022/11/12 06:57:27;;;;;;;2.50;2.30;;;8.60;99.90;;;;;;5134503;27;20214;-90
2022/11/12 06:59:56;;;;;;;2.10;1.95;;;8.70;99.90;;;;;;5133931;27;20218;-88
2022/11/12 07:02:24;;;;;;;3.65;2.35;;;8.80;99.90;;;;;;5133855;27;20225;-85
2022/11/12 07:04:54;;;;;;;2.53;2.03;;;8.80;99.90;;;;;;5133614;27;20202;-94
2022/11/12 07:07:22;;;;;;;1.85;1.75;;;8.90;99.90;;;;;;5134697;27;20211;-90
2022/11/12 07:09:52;;;;;;;1.70;1.60;;;9.00;99.90;;;;;;5134747;27;20248;-94
2022/11/12 07:12:21;;;;;;;1.95;1.75;;;9.10;99.90;;;;;;5140874;27;20211;-90
2022/11/12 07:14:51;;;;;;;1.90;1.80;;;9.10;99.90;;;;;;5142202;27;20264;-95
2022/11/12 07:17:19;;;;;;;1.65;1.55;;;9.20;99.90;;;;;;5142677;27;20209;-94
2022/11/12 07:19:48;;;;;;;2.13;1.90;;;9.20;99.90;;;;;;5138217;27;20203;-94
2022/11/12 07:22:18;;;;;;;1.58;1.27;;;9.30;99.90;;;;;;5134206;27;20286;-94
2022/11/12 07:24:46;;;;;;;1.88;1.65;;;9.40;99.90;;;;;;5134078;28;20286;-94
2022/11/12 07:27:14;;;;;;;1.70;1.60;;;9.50;99.90;;;;;;5133569;28;20211;-94
2022/11/12 07:29:43;;;;;;;7.57;2.33;;;9.50;99.90;;;;;;5133683;28;20199;-94
2022/11/12 07:32:16;;;;;;;2.42;1.73;;;9.60;99.90;;;;;;5134093;28;20227;-92
2022/11/12 07:34:44;;;;;;;1.73;1.63;;;9.70;99.90;;;;;;5135492;27;20266;-93
2022/11/12 07:37:12;;;;;;;1.73;1.63;;;9.70;99.90;;;;;;5138025;27;20206;-93
2022/11/12 07:39:42;;;;;;;1.83;1.73;;;9.80;99.90;;;;;;5138070;27;20203;-94
2022/11/12 07:42:10;;;;;;;2.58;2.30;;;9.90;99.90;;;;;;5137871;27;20222;-93
2022/11/12 07:44:39;;;;;;;3.83;2.42;;;10.00;99.90;;;;;;5137994;27;20199;-94
2022/11/12 07:47:07;;;;;;;2.15;2.00;;;10.00;99.90;;;;;;5138046;27;20266;-95
2022/11/12 07:49:36;;;;;;;1.73;1.63;;;10.00;99.90;;;;;;5138088;27;20205;-95
2022/11/12 07:52:04;;;;;;;3.83;1.80;;;10.10;99.90;;;;;;5137566;27;20313;-93
2022/11/12 07:54:33;;;;;;;3.28;2.67;;;10.10;99.90;;;;;;5137904;27;20211;-93
2022/11/12 07:57:03;;;;;;;3.25;2.95;;;10.10;99.90;;;;;;5137500;27;20198;-92
2022/11/12 07:59:31;;;;;;;3.47;2.95;;;10.20;99.90;;;;;;5138260;27;20194;-92
2022/11/12 08:01:59;;;;;;;3.28;2.97;;;10.20;99.90;;;;;;5142273;27;20231;-92
2022/11/12 08:04:28;;;;;;;7.78;3.78;;;10.30;99.90;;;;;;5138269;27;20286;-93
2022/11/12 08:06:56;;;;;;;4.53;3.95;;;10.30;99.90;;;;;;5137564;27;20213;-93
2022/11/12 08:09:25;;;;;;;4.80;4.40;;;10.30;99.90;;;;;;5137882;27;20199;-93
2022/11/12 08:11:54;;;;;;;7.25;3.60;;;10.40;99.90;;;;;;5137577;27;20302;-93
2022/11/12 08:14:24;;;;;;;4.47;4.07;;;10.30;99.90;;;;;;5138459;27;20199;-94
2022/11/12 08:16:53;;;;;;;5.03;4.53;;;10.30;99.90;;;;;;5137888;27;20195;-93
2022/11/12 08:19:21;;;;;;;4.72;4.22;;;10.40;99.90;;;;;;5137742;27;20209;-93
2022/11/12 08:21:49;;;;;;;3.30;3.00;;;10.40;99.90;;;;;;5141610;27;20231;-93
2022/11/12 08:24:18;;;;;;;3.00;2.80;;;10.50;99.90;;;;;;5140036;27;20211;-93
2022/11/12 08:26:46;;;;;;;4.75;3.40;;;10.70;99.90;;;;;;5138523;27;20213;-94
2022/11/12 08:29:15;;;;;;;4.43;3.35;;;10.80;99.90;;;;;;5137804;27;20234;-93
2022/11/12 08:31:46;;;;;;;2.55;2.35;;;11.00;99.90;;;;;;5137213;27;20215;-93
2022/11/12 08:34:15;;;;;;;3.20;2.83;;;11.10;99.90;;;;;;5137420;27;20207;-92
2022/11/12 08:36:49;;;;;;;6.13;2.58;;;11.30;99.90;;;;;;5136378;27;20232;-92
2022/11/12 08:39:18;;;;;;;6.18;2.58;;;11.30;99.90;;;;;;5136729;27;20207;-92
2022/11/12 08:41:46;;;;;;;5.97;2.95;;;11.50;99.90;;;;;;5136040;27;20230;-93
2022/11/12 08:44:14;;;;;;;3.30;2.67;;;11.60;99.90;;;;;;5136491;27;20214;-92
2022/11/12 08:46:44;;;;;;;5.45;2.75;;;11.70;99.90;;;;;;5134902;27;20214;-93
2022/11/12 08:49:13;;;;;;;3.88;2.80;;;11.80;99.90;;;;;;5136329;27;20207;-93
2022/11/12 08:51:41;;;;;;;6.60;2.47;;;11.90;99.90;;;;;;5136569;27;20230;-94
2022/11/12 08:54:09;;;;;;;2.47;2.25;;;12.10;99.90;;;;;;5136675;27;20223;-94
2022/11/12 08:56:40;;;;;;;3.83;2.80;;;12.20;99.90;;;;;;5136630;27;20209;-93
2022/11/12 08:59:08;;;;;;;3.85;2.63;;;12.30;99.90;;;;;;5137062;27;20199;-94
2022/11/12 09:01:37;;;;;;;8.02;2.88;;;12.40;99.90;;;;;;5137135;27;20223;-95
2022/11/12 09:04:07;;;;;;;2.65;2.45;;;12.50;99.90;;;;;;5137544;27;20203;-94
2022/11/12 09:06:35;;;;;;;3.95;3.20;;;12.60;99.90;;;;;;5138567;27;20199;-94
2022/11/12 09:09:05;;;;;;;2.80;2.60;;;12.70;99.90;;;;;;5139134;27;20226;-94
2022/11/12 09:11:34;;;;;;;2.42;2.22;;;12.80;99.90;;;;;;5139027;27;20234;-95
2022/11/12 09:14:03;;;;;;;2.90;2.13;;;12.90;99.90;;;;;;5139114;27;20203;-94
2022/11/12 09:16:31;;;;;;;4.60;2.33;;;12.90;99.90;;;;;;5140243;27;20240;-95
2022/11/12 09:19:01;;;;;;;2.97;2.47;;;13.00;99.90;;;;;;5145942;27;20203;-95
2022/11/12 09:21:35;;;;;;;2.40;2.20;;;13.20;99.90;;;;;;5147035;27;20313;-94
2022/11/12 09:24:06;;;;;;;4.93;3.55;;;13.30;99.90;;;;;;5151273;27;20274;-94
2022/11/12 09:26:39;;;;;;;11.63;2.83;;;13.30;99.90;;;;;;5150132;27;20209;-94
2022/11/12 09:29:11;;;;;;;3.60;3.17;;;13.40;99.90;;;;;;5147791;27;20202;-96
2022/11/12 09:31:43;;;;;;;2.58;2.38;;;13.50;99.90;;;;;;5143002;27;20219;-95
2022/11/12 09:34:18;;;;;;;2.58;2.00;;;13.60;99.90;;;;;;5141837;27;20255;-94
2022/11/12 09:36:57;;;;;;;8.50;2.38;;;13.70;99.90;;;;;;5144663;27;20209;-94
2022/11/12 09:39:26;;;;;;;2.10;1.90;;;13.80;99.90;;;;;;5149568;27;20199;-94
2022/11/12 09:41:54;;;;;;;2.08;1.88;;;13.90;99.90;;;;;;5136652;27;20233;-94
2022/11/12 09:44:30;;;;;;;1.80;1.70;;;14.00;99.90;;;;;;5135580;27;20233;-93
2022/11/12 09:47:12;;;;;;;2.40;2.17;;;14.10;99.90;;;;;;5135414;27;20205;-93
2022/11/12 09:49:46;;;;;;;2.03;1.67;;;14.30;99.90;;;;;;5135068;27;20209;-93
2022/11/12 09:52:21;;;;;;;2.13;1.92;;;14.50;99.90;;;;;;5135196;27;20231;-92
2022/11/12 09:54:57;;;;;;;2.88;1.70;;;14.70;99.90;;;;;;5135301;27;20205;-92
2022/11/12 09:57:26;;;;;;;2.53;2.15;;;14.90;99.90;;;;;;5134313;27;20203;-93
2022/11/12 09:59:54;;;;;;;3.42;2.33;;;15.00;99.90;;;;;;5135465;27;20201;-94
2022/11/12 10:02:30;;;;;;;1.85;1.73;;;15.30;99.90;;;;;;5134653;27;20237;-93
2022/11/12 10:05:23;;;;;;;2.55;1.98;;;15.50;99.90;;;;;;5134885;27;20349;-94
2022/11/12 10:08:05;;;;;;;3.20;1.77;;;15.80;99.90;;;;;;5125852;27;20198;-93
2022/11/12 10:10:42;;;;;;;2.40;1.95;;;16.10;99.90;;;;;;5134751;27;20202;-94
2022/11/12 10:13:24;;;;;;;2.67;2.47;;;16.50;99.90;;;;;;5134997;27;20226;-93
2022/11/12 10:19:22;;;;;;;2.28;2.08;;;16.90;99.90;;;;;;5134448;27;20209;-94
2022/11/12 10:21:58;;;;;;;1.73;1.63;;;17.20;99.90;;;;;;5134776;27;20227;-94
2022/11/12 10:24:34;;;;;;;3.35;2.33;;;17.50;99.90;;;;;;5134768;27;20230;-93
2022/11/12 10:27:11;;;;;;;3.05;2.10;;;17.60;99.90;;;;;;5134098;27;20309;-94
2022/11/12 10:29:48;;;;;;;4.97;2.20;;;18.30;99.90;;;;;;5134722;27;20197;-93
2022/11/12 10:32:17;;;;;;;3.60;2.08;;;18.70;99.90;;;;;;5134368;27;20222;-94
2022/11/12 10:34:45;;;;;;;2.15;1.52;;;18.90;99.90;;;;;;5134662;27;20266;-94
2022/11/12 10:37:19;;;;;;;1.98;1.77;;;19.00;98.00;;;;;;5133927;27;20209;-93
2022/11/12 10:39:49;;;;;;;2.17;1.90;;;19.10;98.10;;;;;;5134427;27;20212;-93
2022/11/12 10:42:19;;;;;;;2.28;2.05;;;19.10;97.40;;;;;;5134183;27;20227;-94
2022/11/12 10:44:48;;;;;;;1.50;1.40;;;19.10;96.70;;;;;;5134174;27;20259;-94
2022/11/12 10:47:22;;;;;;;2.20;1.77;;;19.10;96.60;;;;;;5134020;27;20205;-94
2022/11/12 10:50:11;;;;;;;1.95;1.75;;;19.20;95.90;;;;;;5134040;27;20199;-93
2022/11/12 10:52:39;;;;;;;2.50;1.83;;;19.50;95.30;;;;;;5134163;27;20223;-93
2022/11/12 10:55:16;;;;;;;1.98;1.83;;;19.80;95.30;;;;;;5133953;27;20210;-93
2022/11/12 10:57:45;;;;;;;1.70;1.60;;;19.90;94.40;;;;;;5133899;27;20206;-94
2022/11/12 11:00:19;;;;;;;2.67;2.05;;;20.00;93.70;;;;;;5134015;27;20203;-94
2022/11/12 11:02:51;;;;;;;1.92;1.42;;;19.80;94.00;;;;;;5134016;27;20252;-94
2022/11/12 11:05:34;;;;;;;1.63;1.52;;;19.60;95.40;;;;;;5134027;27;20203;-94
2022/11/12 11:08:03;;;;;;;1.73;1.63;;;19.60;94.10;;;;;;5133893;27;20212;-94
2022/11/12 11:10:35;;;;;;;1.77;1.67;;;19.90;94.50;;;;;;5133460;27;20285;-93
2022/11/12 11:13:20;;;;;;;1.60;1.50;;;19.90;94.30;;;;;;5133649;27;20221;-93
2022/11/12 11:16:00;;;;;;;1.50;1.40;;;19.90;92.70;;;;;;5134043;27;20225;-94
2022/11/12 11:18:30;;;;;;;1.50;1.40;;;20.20;94.00;;;;;;5133309;27;20221;-94
2022/11/12 11:21:08;;;;;;;2.08;1.85;;;20.20;93.00;;;;;;5134501;27;20206;-94
2022/11/12 11:23:46;;;;;;;2.95;2.13;;;20.20;92.50;;;;;;5133259;27;20222;-93
2022/11/12 11:26:29;;;;;;;1.52;1.42;;;20.30;93.40;;;;;;5133146;28;20205;-94
2022/11/12 11:29:15;;;;;;;8.93;2.00;;;20.50;93.30;;;;;;5142206;28;20214;-94
2022/11/12 11:31:55;;;;;;;1.40;1.30;;;20.50;92.20;;;;;;5140877;28;20246;-93
2022/11/12 11:34:36;;;;;;;2.00;1.80;;;20.80;92.10;;;;;;5134392;28;20207;-93
2022/11/12 11:37:14;;;;;;;2.00;1.75;;;20.90;91.40;;;;;;5133793;28;20195;-95
2022/11/12 11:39:52;;;;;;;2.17;1.88;;;20.90;90.80;;;;;;5133109;28;20199;-94
2022/11/12 11:42:43;;;;;;;1.75;1.65;;;21.00;91.00;;;;;;5133217;28;20229;-93
2022/11/12 11:45:17;;;;;;;2.90;1.90;;;21.10;91.60;;;;;;5133475;28;20207;-94
2022/11/12 11:47:53;;;;;;;1.55;1.45;;;21.10;89.20;;;;;;5133223;28;20203;-94
2022/11/12 11:50:30;;;;;;;2.65;1.70;;;21.30;87.20;;;;;;5133298;28;20206;-93
2022/11/12 11:53:21;;;;;;;2.90;1.95;;;21.20;88.00;;;;;;5133327;28;20233;-93
2022/11/12 11:55:54;;;;;;;3.33;1.77;;;21.40;87.20;;;;;;5133120;28;20207;-93
2022/11/12 11:58:59;;;;;;;4.70;1.90;;;21.50;90.20;;;;;;5132918;28;20207;-94
2022/11/12 12:01:37;;;;;;;1.80;1.70;;;21.70;90.00;;;;;;5133356;28;20225;-93
2022/11/12 12:04:28;;;;;;;5.80;2.35;;;21.80;90.10;;;;;;5132909;28;20214;-93
2022/11/12 12:07:09;;;;;;;2.90;1.77;;;21.80;87.60;;;;;;5133273;28;20185;-95
2022/11/12 12:09:47;;;;;;;2.03;1.92;;;22.00;87.80;;;;;;5133177;28;20215;-94
2022/11/12 12:12:31;;;;;;;1.88;1.75;;;22.20;86.60;;;;;;5133309;28;20226;-94
2022/11/12 12:15:20;;;;;;;14.93;2.05;;;22.20;86.70;;;;;;5132983;28;20207;-93
2022/11/12 12:17:59;;;;;;;3.80;1.95;;;22.10;85.40;;;;;;5132505;28;25091;-93
2022/11/12 12:20:35;;;;;;;1.92;1.83;;;22.50;87.00;;;;;;5133971;27;20303;-93
2022/11/12 12:23:12;;;;;;;2.97;2.03;;;22.70;84.80;;;;;;5136691;27;20233;-93
2022/11/12 12:25:44;;;;;;;2.00;1.58;;;23.20;83.90;;;;;;5137307;27;20209;-94
2022/11/12 12:28:22;;;;;;;2.60;1.80;;;23.40;78.90;;;;;;5136835;27;20211;-94
2022/11/12 12:30:58;;;;;;;2.30;2.10;;;23.70;76.60;;;;;;5137277;27;20199;-94
2022/11/12 12:33:32;;;;;;;2.05;1.88;;;23.60;78.40;;;;;;5136639;27;20219;-94
2022/11/12 12:36:05;;;;;;;1.70;1.60;;;23.40;75.20;;;;;;5136950;27;20208;-93
2022/11/12 12:38:41;;;;;;;2.05;1.88;;;23.40;78.00;;;;;;5140113;27;20213;-93
2022/11/12 12:41:15;;;;;;;2.38;2.17;;;23.60;76.40;;;;;;5136869;27;20288;-91
2022/11/12 12:43:49;;;;;;;1.65;1.55;;;23.90;77.40;;;;;;5136292;27;20226;-93
2022/11/12 12:46:25;;;;;;;2.53;2.00;;;24.20;76.10;;;;;;5136640;27;20214;-93
2022/11/12 12:48:55;;;;;;;4.13;2.00;;;24.10;75.70;;;;;;5136395;27;20294;-93
2022/11/12 12:51:24;;;;;;;2.10;1.85;;;24.30;74.20;;;;;;5136341;27;20227;-91
2022/11/12 12:53:52;;;;;;;2.28;2.08;;;24.60;72.50;;;;;;5136667;27;20207;-92
2022/11/12 12:56:43;;;;;;;2.03;1.75;;;24.60;69.40;;;;;;5136312;27;20213;-93
2022/11/12 12:59:20;;;;;;;1.95;1.85;;;24.30;69.50;;;;;;5128968;27;20210;-91
2022/11/12 13:01:58;;;;;;;1.77;1.67;;;23.80;71.80;;;;;;5136932;27;20214;-93
2022/11/12 13:04:54;;;;;;;1.88;1.77;;;23.70;73.10;;;;;;5135938;27;20221;-93
2022/11/12 13:07:39;;;;;;;2.90;2.38;;;23.70;72.30;;;;;;5136221;27;20199;-92
2022/11/12 13:10:54;;;;;;;2.45;2.20;;;23.70;75.20;;;;;;5136239;27;20217;-93
2022/11/12 13:13:33;;;;;;;;;;;23.70;71.80;;;;;;5136545;27;20083;-91
2022/11/12 13:16:02;;;;;;;3.35;2.58;;;23.40;72.40;;;;;;5135961;27;20185;-93
2022/11/12 13:19:00;;;;;;;4.15;2.50;;;23.30;74.30;;;;;;5135873;27;20206;-92
2022/11/12 13:21:29;;;;;;;2.67;2.17;;;23.20;72.50;;;;;;5135958;27;20219;-92
2022/11/12 13:24:09;;;;;;;7.30;5.18;;;23.10;72.40;;;;;;5135829;27;20223;-92
2022/11/12 13:26:56;;;;;;;2.88;2.67;;;22.90;71.10;;;;;;5135640;27;20202;-92
2022/11/12 13:30:02;;;;;;;2.40;2.20;;;22.80;72.30;;;;;;5135101;27;20209;-92
2022/11/12 13:32:36;;;;;;;2.30;2.10;;;22.60;71.20;;;;;;5135058;27;20222;-93
2022/11/12 13:35:29;;;;;;;2.22;2.03;;;22.20;72.60;;;;;;5141485;27;20206;-93
2022/11/12 13:38:01;;;;;;;3.10;2.75;;;21.50;70.70;;;;;;5143934;27;20213;-93
2022/11/12 13:40:55;;;;;;;1.63;1.52;;;21.10;73.30;;;;;;5137703;27;20199;-93
2022/11/12 13:43:36;;;;;;;1.83;1.73;;;20.80;72.20;;;;;;5116913;27;20219;-93
2022/11/12 13:46:26;;;;;;;1.50;1.40;;;20.60;72.90;;;;;;5136534;27;20237;-94